Time;durP1;ratioP1;P1;durP2;ratioP2;P2;SDS_P1;SDS_P2;PMS_P1;PMS_P2;Temp;Humidity;BMP_temperature;BMP_pressure;BME280_temperature;BME280_humidity;BME280_pressure;Samples;Min_cycle;Max_cycle;Signal;HPM_P1;HPM_P2
2022/01/16 00:01:46;;;;;;;43.17;28.33;;;;;;;;;;5068629;22;20313;-65
2022/01/16 00:04:12;;;;;;;45.57;28.80;;;;;;;;;;5034450;28;20158;-65
2022/01/16 00:06:39;;;;;;;43.70;28.17;;;;;;;;;;5048920;28;20183;-66
2022/01/16 00:09:06;;;;;;;38.97;25.97;;;;;;;;;;5033785;28;20179;-66
2022/01/16 00:11:32;;;;;;;39.90;25.27;;;;;;;;;;5043414;28;20465;-66
2022/01/16 00:13:58;;;;;;;42.47;26.97;;;;;;;;;;5048598;28;20406;-66
2022/01/16 00:16:24;;;;;;;42.13;27.50;;;;;;;;;;5049765;28;20171;-66
2022/01/16 00:18:52;;;;;;;46.27;30.17;;;;;;;;;;5048271;28;20179;-66
2022/01/16 00:21:22;;;;;;;44.90;27.17;;;;;;;;;;5039483;28;20812;-66
2022/01/16 00:23:48;;;;;;;45.37;28.07;;;;;;;;;;5035694;28;20414;-66
2022/01/16 00:26:14;;;;;;;49.30;29.97;;;;;;;;;;5038538;28;20270;-66
2022/01/16 00:28:40;;;;;;;56.97;31.10;;;;;;;;;;5036296;28;20256;-66
2022/01/16 00:31:07;;;;;;;53.70;31.80;;;;;;;;;;5037222;28;21001;-66
2022/01/16 00:33:33;;;;;;;58.67;32.23;;;;;;;;;;5037442;28;20408;-66
2022/01/16 00:35:59;;;;;;;52.70;31.50;;;;;;;;;;5036374;28;20434;-66
2022/01/16 00:38:25;;;;;;;56.67;30.97;;;;;;;;;;5037782;28;20480;-66
2022/01/16 00:40:51;;;;;;;55.03;30.60;;;;;;;;;;5038051;28;20658;-66
2022/01/16 00:43:17;;;;;;;51.17;29.50;;;;;;;;;;5036036;28;20187;-66
2022/01/16 00:45:43;;;;;;;51.77;30.90;;;;;;;;;;5035870;28;20179;-66
2022/01/16 00:48:10;;;;;;;52.70;31.93;;;;;;;;;;5037492;28;20182;-66
2022/01/16 00:50:36;;;;;;;55.70;32.10;;;;;;;;;;5037146;28;20501;-66
2022/01/16 00:53:03;;;;;;;53.33;31.83;;;;;;;;;;5037351;28;20183;-66
2022/01/16 00:55:29;;;;;;;52.37;30.60;;;;;;;;;;5037455;28;20179;-66
2022/01/16 00:57:55;;;;;;;43.20;26.27;;;;;;;;;;5037337;28;20413;-66
2022/01/16 01:00:22;;;;;;;42.87;24.17;;;;;;;;;;5037441;28;20440;-66
2022/01/16 01:02:48;;;;;;;35.37;22.17;;;;;;;;;;5036502;28;20432;-66
2022/01/16 01:05:14;;;;;;;37.03;22.30;;;;;;;;;;5037293;28;20906;-67
2022/01/16 01:07:40;;;;;;;38.00;23.20;;;;;;;;;;5037461;28;20566;-66
2022/01/16 01:10:07;;;;;;;32.57;21.90;;;;;;;;;;5037494;28;20511;-66
2022/01/16 01:12:51;;;;;;;34.80;23.07;;;;;;;;;;5036839;28;20801;-66
2022/01/16 01:15:18;;;;;;;37.70;23.17;;;;;;;;;;5037225;28;20390;-66
2022/01/16 01:17:45;;;;;;;40.23;24.73;;;;;;;;;;5037445;28;20418;-65
2022/01/16 01:20:17;;;;;;;39.50;24.40;;;;;;;;;;5035919;28;20805;-66
2022/01/16 01:22:44;;;;;;;39.93;24.23;;;;;;;;;;5035595;28;20410;-66
2022/01/16 01:25:12;;;;;;;37.23;23.60;;;;;;;;;;5035244;28;20425;-65
2022/01/16 01:27:41;;;;;;;40.47;25.43;;;;;;;;;;5036266;28;20475;-66
2022/01/16 01:30:09;;;;;;;40.50;24.53;;;;;;;;;;5035024;28;20518;-66
2022/01/16 01:32:36;;;;;;;40.23;24.37;;;;;;;;;;5036056;28;20645;-66
2022/01/16 01:35:03;;;;;;;39.27;24.17;;;;;;;;;;5034856;28;20410;-66
2022/01/16 01:37:29;;;;;;;40.63;24.07;;;;;;;;;;5037311;28;20438;-66
2022/01/16 01:39:55;;;;;;;40.87;25.20;;;;;;;;;;5037694;28;20857;-66
2022/01/16 01:42:23;;;;;;;42.70;26.17;;;;;;;;;;5035482;28;20525;-66
2022/01/16 01:53:03;;;;;;;47.67;27.77;;;;;;;;;;5037068;28;20179;-66
2022/01/16 01:55:29;;;;;;;44.03;25.23;;;;;;;;;;5036387;28;20179;-66
2022/01/16 01:57:55;;;;;;;50.20;27.70;;;;;;;;;;5038020;28;20176;-66
2022/01/16 02:00:21;;;;;;;46.80;27.23;;;;;;;;;;5037217;28;20175;-66
2022/01/16 02:05:26;;;;;;;45.83;28.07;;;;;;;;;;5037601;28;20236;-66
2022/01/16 02:07:52;;;;;;;45.37;27.17;;;;;;;;;;5036241;28;20406;-66
2022/01/16 02:10:18;;;;;;;49.27;27.87;;;;;;;;;;5035633;28;20203;-66
2022/01/16 02:12:46;;;;;;;49.93;27.93;;;;;;;;;;5036246;28;20233;-66
2022/01/16 02:31:45;;;;;;;55.67;30.70;;;;;;;;;;5035897;28;20199;-66
2022/01/16 02:34:33;;;;;;;58.13;30.77;;;;;;;;;;5035587;28;20177;-66
2022/01/16 02:37:03;;;;;;;56.77;29.67;;;;;;;;;;5035461;28;20247;-66
2022/01/16 02:39:29;;;;;;;56.73;30.40;;;;;;;;;;5035819;28;20175;-66
2022/01/16 02:41:58;;;;;;;55.80;29.90;;;;;;;;;;5033639;28;20628;-66
2022/01/16 02:46:50;;;;;;;51.97;28.27;;;;;;;;;;5035214;28;20183;-66
2022/01/16 02:49:19;;;;;;;63.17;30.43;;;;;;;;;;5033867;28;20179;-66
2022/01/16 02:51:46;;;;;;;53.10;29.53;;;;;;;;;;5034973;28;20210;-66
2022/01/16 02:54:12;;;;;;;50.47;28.57;;;;;;;;;;5034872;28;20179;-66
2022/01/16 02:56:38;;;;;;;52.43;27.70;;;;;;;;;;5034960;28;20202;-66
2022/01/16 02:59:04;;;;;;;50.90;27.00;;;;;;;;;;5035146;28;20254;-66
2022/01/16 03:01:30;;;;;;;50.90;26.30;;;;;;;;;;5033216;28;20233;-66
2022/01/16 03:03:56;;;;;;;52.63;28.00;;;;;;;;;;5033440;28;20659;-66
2022/01/16 03:06:26;;;;;;;52.00;27.67;;;;;;;;;;5033671;28;20578;-66
2022/01/16 03:08:52;;;;;;;50.20;26.93;;;;;;;;;;5033576;28;20168;-66
2022/01/16 03:11:27;;;;;;;50.73;26.90;;;;;;;;;;5033413;28;20483;-65
2022/01/16 03:13:53;;;;;;;52.43;26.73;;;;;;;;;;5034923;28;20608;-66
2022/01/16 03:16:21;;;;;;;53.27;29.07;;;;;;;;;;5034740;28;20183;-66
2022/01/16 03:21:55;;;;;;;54.37;27.93;;;;;;;;;;5015327;28;20295;-66
2022/01/16 03:24:32;;;;;;;49.23;27.10;;;;;;;;;;5033241;28;20175;-66
2022/01/16 03:27:02;;;;;;;50.63;26.97;;;;;;;;;;5034746;28;20922;-66
2022/01/16 03:29:29;;;;;;;53.20;28.00;;;;;;;;;;5034517;28;20862;-66
2022/01/16 03:31:55;;;;;;;50.40;28.33;;;;;;;;;;5034526;28;20430;-66
2022/01/16 03:34:21;;;;;;;49.03;27.90;;;;;;;;;;5033172;28;20183;-66
2022/01/16 03:36:47;;;;;;;48.30;28.43;;;;;;;;;;5033187;28;20175;-66
2022/01/16 03:39:14;;;;;;;50.67;28.90;;;;;;;;;;5034086;28;20464;-66
2022/01/16 03:41:40;;;;;;;48.83;28.37;;;;;;;;;;5032962;28;20460;-66
2022/01/16 03:44:06;;;;;;;52.13;29.60;;;;;;;;;;5033014;28;20213;-66
2022/01/16 03:46:36;;;;;;;47.87;29.80;;;;;;;;;;5032979;28;20560;-66
2022/01/16 03:49:04;;;;;;;55.10;27.40;;;;;;;;;;5032841;28;20186;-65
2022/01/16 03:51:30;;;;;;;47.83;27.77;;;;;;;;;;5033882;28;20222;-65
2022/01/16 03:53:56;;;;;;;47.03;28.93;;;;;;;;;;5034192;28;20422;-65
2022/01/16 03:56:22;;;;;;;58.27;31.27;;;;;;;;;;5034182;28;20643;-66
2022/01/16 03:58:48;;;;;;;52.60;29.33;;;;;;;;;;5033451;28;20190;-66
2022/01/16 04:01:14;;;;;;;51.37;29.17;;;;;;;;;;5033818;28;20450;-66
2022/01/16 04:03:40;;;;;;;45.80;26.77;;;;;;;;;;5033904;28;20406;-66
2022/01/16 04:06:06;;;;;;;48.20;28.97;;;;;;;;;;5034098;28;20214;-66
2022/01/16 04:08:32;;;;;;;47.27;28.27;;;;;;;;;;5034255;28;20631;-66
2022/01/16 04:10:59;;;;;;;54.23;30.17;;;;;;;;;;5032527;28;20302;-67
2022/01/16 04:13:25;;;;;;;50.40;29.40;;;;;;;;;;5034031;28;20178;-66
2022/01/16 04:15:51;;;;;;;49.20;30.23;;;;;;;;;;5032741;28;20449;-66
2022/01/16 04:18:17;;;;;;;61.77;33.33;;;;;;;;;;5033942;28;20171;-66
2022/01/16 04:20:43;;;;;;;53.33;31.30;;;;;;;;;;5032856;28;20671;-66
2022/01/16 04:23:13;;;;;;;50.27;29.17;;;;;;;;;;5033746;28;20179;-66
2022/01/16 04:25:39;;;;;;;54.03;29.23;;;;;;;;;;5033703;28;20674;-66
2022/01/16 04:28:05;;;;;;;55.17;29.73;;;;;;;;;;5033557;28;20183;-66
2022/01/16 04:30:32;;;;;;;56.27;30.17;;;;;;;;;;5033510;28;20461;-66
2022/01/16 04:32:58;;;;;;;53.30;30.70;;;;;;;;;;5033691;28;20418;-66
2022/01/16 04:35:24;;;;;;;57.17;30.53;;;;;;;;;;5032535;28;20452;-66
2022/01/16 04:37:50;;;;;;;61.80;31.60;;;;;;;;;;5032455;28;20172;-66
2022/01/16 04:40:16;;;;;;;64.13;30.87;;;;;;;;;;5033752;28;20190;-65
2022/01/16 04:45:27;;;;;;;61.23;31.33;;;;;;;;;;5033902;28;20447;-66
2022/01/16 04:47:53;;;;;;;61.97;31.63;;;;;;;;;;5032294;28;20425;-66
2022/01/16 04:50:22;;;;;;;60.40;31.57;;;;;;;;;;5033278;28;20457;-66
2022/01/16 04:52:48;;;;;;;61.57;30.67;;;;;;;;;;5033638;28;20632;-66
2022/01/16 04:55:14;;;;;;;63.83;34.23;;;;;;;;;;5033401;28;20186;-66
2022/01/16 04:57:41;;;;;;;62.83;32.67;;;;;;;;;;5033141;28;20457;-67
2022/01/16 05:00:09;;;;;;;64.20;32.17;;;;;;;;;;5033403;28;20206;-67
2022/01/16 05:02:35;;;;;;;67.13;34.53;;;;;;;;;;5031961;28;20551;-66
2022/01/16 05:05:01;;;;;;;69.63;34.23;;;;;;;;;;5032115;28;20647;-67
2022/01/16 05:07:27;;;;;;;69.83;36.07;;;;;;;;;;5032184;28;20184;-66
2022/01/16 05:09:53;;;;;;;71.40;35.53;;;;;;;;;;5033225;28;21035;-67
2022/01/16 05:12:27;;;;;;;65.10;35.67;;;;;;;;;;5035526;28;20206;-66
2022/01/16 05:17:38;;;;;;;73.33;36.23;;;;;;;;;;5036961;28;20642;-66
2022/01/16 05:20:04;;;;;;;67.13;36.23;;;;;;;;;;5036698;28;20179;-66
2022/01/16 05:22:30;;;;;;;73.30;35.87;;;;;;;;;;5036671;28;20620;-66
2022/01/16 05:24:56;;;;;;;73.63;36.63;;;;;;;;;;5036878;28;20601;-66
2022/01/16 05:27:22;;;;;;;70.53;36.87;;;;;;;;;;5036597;28;20185;-66
2022/01/16 05:29:48;;;;;;;64.53;35.73;;;;;;;;;;5035267;28;20210;-66
2022/01/16 05:32:16;;;;;;;65.43;35.97;;;;;;;;;;5035284;28;20577;-66
2022/01/16 05:34:42;;;;;;;75.70;38.43;;;;;;;;;;5035471;28;20584;-66
2022/01/16 05:37:08;;;;;;;71.00;37.27;;;;;;;;;;5035905;28;20274;-66
2022/01/16 05:39:35;;;;;;;69.07;38.13;;;;;;;;;;5036388;28;20903;-66
2022/01/16 05:42:01;;;;;;;70.07;36.50;;;;;;;;;;5034834;28;20203;-66
2022/01/16 05:44:27;;;;;;;70.50;37.73;;;;;;;;;;5036255;28;20421;-66
2022/01/16 05:46:53;;;;;;;65.87;36.13;;;;;;;;;;5036103;28;20857;-66
2022/01/16 05:49:19;;;;;;;74.60;38.07;;;;;;;;;;5036349;28;20203;-65
2022/01/16 05:51:45;;;;;;;71.17;39.37;;;;;;;;;;5036259;28;20740;-66
2022/01/16 05:54:11;;;;;;;66.80;37.83;;;;;;;;;;5034951;28;20171;-66
2022/01/16 05:56:37;;;;;;;77.87;40.17;;;;;;;;;;5036126;28;20406;-66
2022/01/16 05:59:03;;;;;;;67.70;38.90;;;;;;;;;;5035164;28;20179;-66
2022/01/16 06:01:29;;;;;;;72.43;37.50;;;;;;;;;;5047250;28;20274;-66
2022/01/16 06:03:55;;;;;;;70.87;38.73;;;;;;;;;;5047870;28;20186;-66
2022/01/16 06:06:21;;;;;;;67.20;38.90;;;;;;;;;;5048432;28;20406;-66
2022/01/16 06:08:48;;;;;;;72.90;38.90;;;;;;;;;;5043873;28;20187;-68
2022/01/16 06:11:14;;;;;;;74.07;40.43;;;;;;;;;;5035658;28;20215;-66
2022/01/16 06:13:40;;;;;;;62.80;37.53;;;;;;;;;;5036626;28;20780;-66
2022/01/16 06:16:06;;;;;;;65.53;37.43;;;;;;;;;;5034948;28;20183;-66
2022/01/16 06:18:32;;;;;;;71.43;40.43;;;;;;;;;;5034345;28;20175;-66
2022/01/16 06:20:58;;;;;;;66.63;38.93;;;;;;;;;;5035019;28;21007;-66
2022/01/16 06:23:24;;;;;;;61.87;37.80;;;;;;;;;;5035620;28;20182;-66
2022/01/16 06:25:54;;;;;;;70.97;39.43;;;;;;;;;;5035434;28;20191;-66
2022/01/16 06:28:20;;;;;;;69.87;40.17;;;;;;;;;;5035603;28;20202;-66
2022/01/16 06:30:46;;;;;;;67.77;39.90;;;;;;;;;;5034075;28;20304;-66
2022/01/16 06:33:12;;;;;;;65.20;37.80;;;;;;;;;;5035245;28;20938;-66
2022/01/16 06:35:38;;;;;;;63.70;39.33;;;;;;;;;;5036695;28;20181;-66
2022/01/16 06:38:04;;;;;;;62.37;38.20;;;;;;;;;;5036506;28;20647;-67
2022/01/16 06:40:31;;;;;;;66.37;39.47;;;;;;;;;;5036634;28;20179;-66
2022/01/16 06:42:56;;;;;;;61.20;38.23;;;;;;;;;;5036360;28;20249;-66
2022/01/16 06:45:22;;;;;;;62.43;39.60;;;;;;;;;;5034484;28;20910;-66
2022/01/16 06:47:50;;;;;;;66.40;39.60;;;;;;;;;;5034165;28;20190;-66
2022/01/16 06:50:16;;;;;;;65.00;38.73;;;;;;;;;;5035600;28;20293;-66
2022/01/16 06:52:42;;;;;;;68.30;39.87;;;;;;;;;;5035146;28;20643;-67
2022/01/16 06:55:08;;;;;;;64.60;39.63;;;;;;;;;;5033906;28;20418;-66
2022/01/16 06:57:34;;;;;;;68.53;41.03;;;;;;;;;;5033743;28;20213;-66
2022/01/16 07:00:00;;;;;;;56.13;38.60;;;;;;;;;;5033773;28;20648;-66
2022/01/16 07:02:27;;;;;;;61.83;39.10;;;;;;;;;;5034818;28;20241;-66
2022/01/16 07:04:53;;;;;;;65.87;40.57;;;;;;;;;;5035523;28;20175;-66
2022/01/16 07:07:19;;;;;;;63.53;39.17;;;;;;;;;;5034976;28;20179;-66
2022/01/16 07:09:46;;;;;;;67.37;42.73;;;;;;;;;;5033639;28;20215;-66
2022/01/16 07:12:12;;;;;;;63.00;40.17;;;;;;;;;;5034763;28;20806;-66
2022/01/16 07:14:38;;;;;;;61.17;40.50;;;;;;;;;;5033275;28;20418;-66
2022/01/16 07:17:04;;;;;;;60.27;39.50;;;;;;;;;;5032953;28;20186;-66
2022/01/16 07:19:30;;;;;;;56.90;38.07;;;;;;;;;;5069354;23;20859;-63
2022/01/16 07:21:56;;;;;;;64.97;38.33;;;;;;;;;;5056349;28;20178;-62
2022/01/16 07:24:22;;;;;;;63.33;38.13;;;;;;;;;;5056348;28;20641;-61
2022/01/16 07:26:48;;;;;;;55.53;38.87;;;;;;;;;;5055679;28;20218;-61
2022/01/16 07:29:14;;;;;;;58.57;39.00;;;;;;;;;;5056167;28;20714;-61
2022/01/16 07:31:40;;;;;;;52.40;36.23;;;;;;;;;;5054220;28;20224;-63
2022/01/16 07:34:07;;;;;;;65.30;41.77;;;;;;;;;;5055229;28;20170;-62
2022/01/16 07:36:33;;;;;;;60.87;39.20;;;;;;;;;;5055536;28;20178;-62
2022/01/16 07:38:59;;;;;;;66.80;44.13;;;;;;;;;;5054508;28;20198;-61
2022/01/16 07:41:25;;;;;;;64.20;39.97;;;;;;;;;;5054277;28;20200;-60
2022/01/16 07:43:51;;;;;;;63.50;41.10;;;;;;;;;;5056175;28;20269;-62
2022/01/16 07:46:17;;;;;;;71.07;41.67;;;;;;;;;;5053740;28;20182;-61
2022/01/16 07:48:43;;;;;;;60.03;38.83;;;;;;;;;;5055797;28;20203;-61
2022/01/16 07:51:09;;;;;;;57.70;39.53;;;;;;;;;;5053888;28;20645;-62
2022/01/16 07:53:37;;;;;;;67.70;41.87;;;;;;;;;;5054898;28;20304;-62
2022/01/16 07:56:03;;;;;;;71.10;46.07;;;;;;;;;;5055235;28;20177;-62
2022/01/16 07:58:29;;;;;;;64.83;40.57;;;;;;;;;;5053709;28;20178;-62
2022/01/16 08:00:56;;;;;;;64.27;39.20;;;;;;;;;;5054682;28;20304;-62
2022/01/16 08:03:22;;;;;;;65.30;41.23;;;;;;;;;;5054716;28;20256;-61
2022/01/16 08:05:48;;;;;;;70.20;43.90;;;;;;;;;;5054925;28;20272;-62
2022/01/16 08:08:14;;;;;;;73.87;44.70;;;;;;;;;;5054086;28;20183;-62
2022/01/16 08:10:40;;;;;;;71.63;44.60;;;;;;;;;;5053397;28;20210;-62
2022/01/16 08:13:06;;;;;;;66.53;43.10;;;;;;;;;;5055345;28;20181;-62
2022/01/16 08:15:32;;;;;;;78.47;50.13;;;;;;;;;;5054045;28;20257;-62
2022/01/16 08:17:58;;;;;;;68.50;42.60;;;;;;;;;;5054829;28;20265;-62
2022/01/16 08:20:24;;;;;;;76.83;45.53;;;;;;;;;;5054592;28;20713;-61
2022/01/16 08:22:50;;;;;;;74.87;45.37;;;;;;;;;;5055388;28;20175;-62
2022/01/16 08:25:16;;;;;;;77.97;44.57;;;;;;;;;;5055039;28;20823;-62
2022/01/16 08:27:42;;;;;;;77.87;44.63;;;;;;;;;;5054768;28;20701;-62
2022/01/16 08:30:09;;;;;;;74.87;45.17;;;;;;;;;;5054573;28;20206;-63
2022/01/16 08:32:35;;;;;;;71.33;45.23;;;;;;;;;;5054564;28;20222;-62
2022/01/16 08:35:02;;;;;;;68.13;45.07;;;;;;;;;;5053364;28;20437;-62
2022/01/16 08:37:28;;;;;;;72.43;44.10;;;;;;;;;;5053225;28;20206;-62
2022/01/16 08:39:54;;;;;;;70.30;43.67;;;;;;;;;;5054611;28;20202;-62
2022/01/16 08:42:20;;;;;;;67.13;38.60;;;;;;;;;;5054527;28;20202;-62
2022/01/16 08:44:46;;;;;;;70.00;43.90;;;;;;;;;;5056440;28;20175;-62
2022/01/16 08:47:12;;;;;;;70.83;41.57;;;;;;;;;;5058714;28;20232;-63
2022/01/16 08:49:38;;;;;;;63.70;40.17;;;;;;;;;;5058049;28;20198;-62
2022/01/16 08:52:04;;;;;;;61.90;40.37;;;;;;;;;;5061636;28;20245;-63
2022/01/16 08:54:30;;;;;;;62.87;39.27;;;;;;;;;;5068004;28;20185;-63
2022/01/16 08:56:56;;;;;;;65.47;40.33;;;;;;;;;;5065642;28;20182;-62
2022/01/16 08:59:22;;;;;;;64.73;38.33;;;;;;;;;;5064445;28;20198;-62
2022/01/16 09:01:48;;;;;;;53.70;33.03;;;;;;;;;;5058445;28;20684;-62
2022/01/16 09:04:14;;;;;;;62.73;38.97;;;;;;;;;;5057427;28;20273;-62
2022/01/16 09:06:40;;;;;;;61.33;39.40;;;;;;;;;;5056809;28;20186;-62
2022/01/16 09:09:06;;;;;;;64.83;41.00;;;;;;;;;;5058381;28;20202;-62
2022/01/16 09:11:32;;;;;;;65.07;39.77;;;;;;;;;;5057838;28;20202;-62
2022/01/16 09:13:58;;;;;;;67.17;40.53;;;;;;;;;;5056555;28;20182;-62
2022/01/16 09:16:25;;;;;;;59.83;39.00;;;;;;;;;;5057856;28;20610;-62
2022/01/16 09:18:51;;;;;;;59.87;37.67;;;;;;;;;;5056290;28;20217;-62
2022/01/16 09:21:17;;;;;;;61.40;39.87;;;;;;;;;;5057999;28;20162;-62
2022/01/16 09:23:46;;;;;;;62.13;39.93;;;;;;;;;;5057959;28;20182;-62
2022/01/16 09:26:13;;;;;;;63.83;40.07;;;;;;;;;;5057567;28;20179;-63
2022/01/16 09:28:39;;;;;;;60.97;37.10;;;;;;;;;;5057406;28;20203;-62
2022/01/16 09:31:05;;;;;;;57.13;35.77;;;;;;;;;;5058451;28;20206;-63
2022/01/16 09:33:31;;;;;;;54.37;35.47;;;;;;;;;;5065811;28;20186;-63
2022/01/16 09:35:57;;;;;;;56.03;35.90;;;;;;;;;;5072086;28;20182;-62
2022/01/16 09:38:23;;;;;;;61.27;37.20;;;;;;;;;;5063060;28;20246;-62
2022/01/16 09:40:49;;;;;;;62.00;37.67;;;;;;;;;;5058225;28;20183;-62
2022/01/16 09:43:16;;;;;;;56.70;34.93;;;;;;;;;;5057560;28;20285;-64
2022/01/16 09:45:42;;;;;;;63.77;36.30;;;;;;;;;;5057633;28;20253;-62
2022/01/16 09:48:08;;;;;;;55.67;35.87;;;;;;;;;;5055895;28;20213;-63
2022/01/16 09:50:35;;;;;;;57.90;34.40;;;;;;;;;;5056893;28;20194;-61
2022/01/16 09:53:02;;;;;;;50.63;32.90;;;;;;;;;;5055749;28;20174;-62
2022/01/16 09:55:28;;;;;;;51.83;32.00;;;;;;;;;;5056836;28;20273;-62
2022/01/16 09:57:57;;;;;;;52.73;33.17;;;;;;;;;;5055545;28;20178;-63
2022/01/16 10:00:24;;;;;;;50.00;33.60;;;;;;;;;;5056807;28;20293;-62
2022/01/16 10:02:50;;;;;;;53.00;35.20;;;;;;;;;;5056778;28;20189;-63
2022/01/16 10:05:36;;;;;;;50.23;33.20;;;;;;;;;;5056699;28;20174;-63
2022/01/16 10:08:06;;;;;;;54.70;33.57;;;;;;;;;;5055117;28;20244;-63
2022/01/16 10:10:35;;;;;;;49.27;31.57;;;;;;;;;;5054913;28;20207;-62
2022/01/16 10:13:07;;;;;;;55.73;32.27;;;;;;;;;;5056539;28;20244;-62
2022/01/16 10:15:33;;;;;;;50.43;32.27;;;;;;;;;;5055276;28;20181;-62
2022/01/16 10:18:00;;;;;;;45.30;31.53;;;;;;;;;;5054965;28;20547;-63
2022/01/16 10:20:27;;;;;;;56.60;34.03;;;;;;;;;;5056238;28;20701;-62
2022/01/16 10:22:53;;;;;;;43.90;27.23;;;;;;;;;;5054954;28;20185;-62
2022/01/16 10:25:41;;;;;;;51.30;30.53;;;;;;;;;;5056573;28;20182;-63
2022/01/16 10:28:23;;;;;;;48.30;31.73;;;;;;;;;;5056564;28;20181;-62
2022/01/16 10:30:50;;;;;;;49.00;31.73;;;;;;;;;;5056449;28;20202;-62
2022/01/16 10:33:19;;;;;;;50.43;31.53;;;;;;;;;;5057461;28;20221;-62
2022/01/16 10:35:47;;;;;;;46.87;31.13;;;;;;;;;;5056267;28;20643;-62
2022/01/16 10:38:21;;;;;;;53.30;32.33;;;;;;;;;;5055094;28;20185;-62
2022/01/16 10:40:50;;;;;;;50.60;32.20;;;;;;;;;;5056981;28;20158;-64
2022/01/16 10:43:17;;;;;;;51.30;32.53;;;;;;;;;;5055381;28;20209;-63
2022/01/16 10:45:44;;;;;;;53.23;33.67;;;;;;;;;;5057368;28;20216;-62
2022/01/16 10:48:11;;;;;;;50.03;31.60;;;;;;;;;;5056009;28;20174;-63
2022/01/16 10:50:39;;;;;;;46.97;30.90;;;;;;;;;;5056081;28;20255;-63
2022/01/16 10:53:19;;;;;;;51.07;32.17;;;;;;;;;;5057597;28;20179;-62
2022/01/16 10:55:47;;;;;;;50.63;31.17;;;;;;;;;;5054831;28;20174;-62
2022/01/16 10:58:19;;;;;;;47.33;32.17;;;;;;;;;;5055377;28;20174;-63
2022/01/16 11:01:04;;;;;;;53.43;32.70;;;;;;;;;;5055767;28;20182;-62
2022/01/16 11:03:46;;;;;;;54.57;33.10;;;;;;;;;;5055821;28;20232;-63
2022/01/16 11:06:13;;;;;;;51.53;31.50;;;;;;;;;;5054011;28;20183;-62
2022/01/16 11:08:39;;;;;;;49.83;30.53;;;;;;;;;;5054665;28;20203;-62
2022/01/16 11:11:07;;;;;;;60.17;32.90;;;;;;;;;;5055000;28;20194;-63
2022/01/16 11:13:34;;;;;;;59.37;35.03;;;;;;;;;;5055099;28;20181;-62
2022/01/16 11:16:03;;;;;;;56.57;34.07;;;;;;;;;;5056939;28;20175;-63
2022/01/16 11:18:29;;;;;;;53.90;32.70;;;;;;;;;;5053008;28;20182;-63
2022/01/16 11:21:07;;;;;;;53.83;33.33;;;;;;;;;;5055145;28;20170;-62
2022/01/16 11:23:46;;;;;;;58.13;33.10;;;;;;;;;;5055152;28;20165;-62
2022/01/16 11:26:13;;;;;;;58.37;35.33;;;;;;;;;;5055098;28;20158;-62
2022/01/16 11:28:39;;;;;;;58.43;36.80;;;;;;;;;;5053234;28;20202;-62
2022/01/16 11:31:07;;;;;;;58.70;34.37;;;;;;;;;;5054499;28;20208;-62
2022/01/16 11:33:34;;;;;;;64.33;37.80;;;;;;;;;;5054323;28;20209;-62
2022/01/16 11:36:02;;;;;;;71.73;38.13;;;;;;;;;;5054875;28;20179;-63
2022/01/16 11:38:32;;;;;;;64.90;36.77;;;;;;;;;;5053182;28;20179;-62
2022/01/16 11:41:03;;;;;;;61.63;36.60;;;;;;;;;;5053458;28;20776;-62
2022/01/16 11:43:36;;;;;;;62.40;37.27;;;;;;;;;;5054902;28;20174;-62
2022/01/16 11:46:04;;;;;;;61.70;37.57;;;;;;;;;;5054952;28;20178;-62
2022/01/16 11:48:36;;;;;;;69.40;41.70;;;;;;;;;;5054661;28;20184;-62
2022/01/16 11:51:07;;;;;;;63.47;37.53;;;;;;;;;;5053570;28;20202;-62
2022/01/16 11:53:51;;;;;;;63.77;36.83;;;;;;;;;;5056875;28;20182;-63
2022/01/16 11:56:36;;;;;;;69.20;36.63;;;;;;;;;;5063689;28;20704;-63
2022/01/16 11:59:14;;;;;;;61.90;35.10;;;;;;;;;;5061664;28;20194;-63
2022/01/16 12:01:44;;;;;;;62.30;36.13;;;;;;;;;;5056534;28;20565;-62
2022/01/16 12:04:28;;;;;;;62.53;36.00;;;;;;;;;;5054625;28;20178;-63
2022/01/16 12:06:54;;;;;;;66.30;35.67;;;;;;;;;;5054732;28;20195;-64
2022/01/16 12:12:13;;;;;;;58.40;32.17;;;;;;;;;;5054414;28;20163;-63
2022/01/16 12:14:59;;;;;;;61.33;32.67;;;;;;;;;;5054178;28;20577;-62
2022/01/16 12:17:27;;;;;;;63.77;34.57;;;;;;;;;;5052700;28;20190;-63
2022/01/16 12:19:54;;;;;;;53.27;31.40;;;;;;;;;;5057324;28;20735;-62
2022/01/16 12:22:40;;;;;;;61.13;32.60;;;;;;;;;;5061697;28;20201;-62
2022/01/16 12:25:08;;;;;;;42.63;24.07;;;;;;;;;;5060652;28;20186;-63
2022/01/16 12:27:37;;;;;;;48.77;29.57;;;;;;;;;;5060467;28;20178;-62
2022/01/16 12:30:09;;;;;;;49.13;28.53;;;;;;;;;;5061800;28;20576;-63
2022/01/16 12:32:55;;;;;;;51.93;28.87;;;;;;;;;;5068145;28;20268;-65
2022/01/16 12:35:39;;;;;;;53.23;29.47;;;;;;;;;;5070141;28;20174;-63
2022/01/16 12:38:06;;;;;;;53.67;29.43;;;;;;;;;;5070787;28;20253;-63
2022/01/16 12:40:32;;;;;;;52.83;29.07;;;;;;;;;;5069708;28;20692;-62
2022/01/16 12:43:03;;;;;;;53.20;31.37;;;;;;;;;;5064007;28;20183;-62
2022/01/16 12:45:30;;;;;;;54.23;28.73;;;;;;;;;;5061400;28;20155;-63
2022/01/16 12:47:57;;;;;;;53.57;28.93;;;;;;;;;;5060978;28;20642;-62
2022/01/16 12:50:23;;;;;;;57.30;30.40;;;;;;;;;;5059200;28;20260;-63
2022/01/16 12:52:49;;;;;;;50.60;29.40;;;;;;;;;;5060335;28;20591;-64
2022/01/16 12:55:15;;;;;;;50.40;28.63;;;;;;;;;;5062611;28;20179;-63
2022/01/16 12:57:41;;;;;;;68.90;38.47;;;;;;;;;;5068631;28;20174;-63
2022/01/16 13:00:11;;;;;;;84.53;42.73;;;;;;;;;;5073260;28;20205;-63
2022/01/16 13:02:37;;;;;;;49.30;27.63;;;;;;;;;;5073433;28;20174;-62
2022/01/16 13:05:03;;;;;;;56.50;29.27;;;;;;;;;;5067363;28;20178;-62
2022/01/16 13:07:30;;;;;;;52.33;28.10;;;;;;;;;;5061948;28;20179;-63
2022/01/16 13:09:56;;;;;;;61.27;33.60;;;;;;;;;;5060388;28;20198;-62
2022/01/16 13:12:23;;;;;;;51.57;27.77;;;;;;;;;;5062900;28;20178;-62
2022/01/16 13:14:49;;;;;;;53.70;30.17;;;;;;;;;;5064249;28;20177;-63
2022/01/16 13:17:15;;;;;;;46.30;26.10;;;;;;;;;;5067660;28;20178;-63
2022/01/16 13:22:13;;;;;;;58.07;34.57;;;;;;;;;;5039728;28;20191;-66
2022/01/16 13:24:48;;;;;;;41.20;24.80;;;;;;;;;;5039174;28;20610;-66
2022/01/16 13:27:25;;;;;;;48.60;28.97;;;;;;;;;;5054635;28;20196;-66
2022/01/16 13:29:52;;;;;;;52.43;30.20;;;;;;;;;;5038997;28;20250;-66
2022/01/16 13:32:19;;;;;;;51.47;30.47;;;;;;;;;;5036299;28;20175;-66
2022/01/16 13:34:50;;;;;;;49.03;28.23;;;;;;;;;;5035943;28;20175;-67
2022/01/16 13:37:20;;;;;;;45.37;27.87;;;;;;;;;;5035956;28;20179;-66
2022/01/16 13:39:53;;;;;;;48.20;29.10;;;;;;;;;;5035829;28;20195;-66
2022/01/16 13:42:53;;;;;;;40.63;24.33;;;;;;;;;;5035917;28;20182;-66
2022/01/16 13:45:35;;;;;;;46.73;28.70;;;;;;;;;;5036182;28;20197;-66
2022/01/16 13:48:01;;;;;;;40.87;24.13;;;;;;;;;;5036074;28;20199;-66
2022/01/16 13:50:46;;;;;;;42.73;24.97;;;;;;;;;;5035341;28;20234;-66
2022/01/16 13:53:12;;;;;;;45.23;28.43;;;;;;;;;;5035872;28;20669;-66
2022/01/16 13:55:45;;;;;;;40.43;24.70;;;;;;;;;;5035732;28;20207;-66
2022/01/16 13:58:16;;;;;;;47.13;26.17;;;;;;;;;;5034493;28;20598;-66
2022/01/16 14:00:43;;;;;;;42.27;24.53;;;;;;;;;;5036172;28;20647;-67
2022/01/16 14:03:16;;;;;;;42.27;24.67;;;;;;;;;;5035463;28;20190;-66
2022/01/16 14:05:53;;;;;;;50.30;30.20;;;;;;;;;;5034316;28;20229;-66
2022/01/16 14:08:20;;;;;;;47.23;26.63;;;;;;;;;;5036061;28;20201;-65
2022/01/16 14:10:46;;;;;;;46.17;26.40;;;;;;;;;;5035246;28;20679;-66
2022/01/16 14:13:12;;;;;;;49.87;29.57;;;;;;;;;;5034064;28;20273;-66
2022/01/16 14:15:39;;;;;;;58.33;34.10;;;;;;;;;;5034111;28;20189;-66
2022/01/16 14:18:06;;;;;;;57.57;33.00;;;;;;;;;;5035368;28;20648;-66
2022/01/16 14:20:48;;;;;;;57.57;33.93;;;;;;;;;;5035068;28;20206;-66
2022/01/16 14:23:14;;;;;;;50.13;31.13;;;;;;;;;;5035596;28;20179;-66
2022/01/16 14:25:40;;;;;;;48.80;25.87;;;;;;;;;;5035304;28;20572;-66
2022/01/16 14:28:07;;;;;;;47.07;27.23;;;;;;;;;;5035422;28;20189;-66
2022/01/16 14:30:33;;;;;;;48.00;26.57;;;;;;;;;;5033774;28;20238;-66
2022/01/16 14:32:59;;;;;;;45.47;27.20;;;;;;;;;;5033783;28;20179;-66
2022/01/16 14:35:25;;;;;;;43.33;25.87;;;;;;;;;;5035185;28;20273;-66
2022/01/16 14:37:51;;;;;;;43.47;25.27;;;;;;;;;;5034909;28;20203;-66
2022/01/16 14:40:17;;;;;;;40.93;22.87;;;;;;;;;;5034645;28;20198;-66
2022/01/16 14:42:45;;;;;;;39.93;25.03;;;;;;;;;;5034426;28;20222;-66
2022/01/16 14:45:11;;;;;;;49.13;28.17;;;;;;;;;;5033438;28;20211;-66
2022/01/16 14:47:38;;;;;;;45.43;25.13;;;;;;;;;;5033390;28;20281;-66
2022/01/16 14:50:05;;;;;;;46.37;27.03;;;;;;;;;;5034785;28;20572;-66
2022/01/16 14:52:31;;;;;;;44.60;26.03;;;;;;;;;;5034737;28;20176;-66
2022/01/16 14:54:57;;;;;;;42.40;26.03;;;;;;;;;;5033359;28;20182;-66
2022/01/16 14:57:23;;;;;;;40.47;24.10;;;;;;;;;;5034790;28;20199;-66
2022/01/16 14:59:51;;;;;;;42.13;26.20;;;;;;;;;;5034707;28;20245;-66
2022/01/16 15:02:17;;;;;;;41.37;24.20;;;;;;;;;;5034949;28;20175;-66
2022/01/16 15:04:43;;;;;;;44.40;26.77;;;;;;;;;;5034407;28;20707;-66